Time;durP1;ratioP1;P1;durP2;ratioP2;P2;SDS_P1;SDS_P2;PMS_P1;PMS_P2;Temp;Humidity;BMP_temperature;BMP_pressure;BME280_temperature;BME280_humidity;BME280_pressure;Samples;Min_cycle;Max_cycle;Signal;HPM_P1;HPM_P2
2021/07/23 00:00:35;;;;;;;10.93;9.68;;;;;;;27.28;45.50;101912.06;5073141;28;20486;-75
2021/07/23 00:03:01;;;;;;;11.73;10.52;;;;;;;27.25;45.68;101917.63;5073269;28;20036;-75
2021/07/23 00:05:27;;;;;;;12.68;11.18;;;;;;;27.29;45.36;101918.47;5073104;28;20070;-78
2021/07/23 00:07:53;;;;;;;15.63;12.57;;;;;;;27.09;45.59;101913.22;5073182;28;20157;-81
2021/07/23 00:10:18;;;;;;;14.05;12.13;;;;;;;26.97;45.91;101910.75;5073105;28;20020;-75
2021/07/23 00:12:44;;;;;;;18.02;11.90;;;;;;;26.91;45.51;101906.75;5073094;28;20028;-75
2021/07/23 00:15:11;;;;;;;15.32;13.20;;;;;;;26.79;45.61;101910.72;5072994;28;20371;-75
2021/07/23 00:17:36;;;;;;;17.67;15.80;;;;;;;26.78;45.57;101909.13;5072918;28;20382;-75
2021/07/23 00:20:02;;;;;;;17.92;15.77;;;;;;;26.66;45.95;101914.28;5072963;28;20020;-75
2021/07/23 00:22:28;;;;;;;21.10;17.40;;;;;;;26.59;45.71;101909.44;5071584;28;20115;-77
2021/07/23 00:24:54;;;;;;;20.65;17.52;;;;;;;26.59;45.68;101903.03;5072931;28;20154;-75
2021/07/23 00:27:19;;;;;;;20.02;17.95;;;;;;;26.45;46.16;101904.59;5072591;28;20024;-76
2021/07/23 00:29:45;;;;;;;21.02;18.08;;;;;;;26.39;46.47;101899.78;5071423;28;20028;-75
2021/07/23 00:32:11;;;;;;;23.95;15.80;;;;;;;26.36;46.10;101904.13;5072785;28;20028;-75
2021/07/23 00:34:37;;;;;;;21.90;14.48;;;;;;;26.31;45.69;101904.50;5072822;28;20495;-75
2021/07/23 00:37:02;;;;;;;22.73;14.70;;;;;;;26.21;45.10;101903.25;5072485;28;20052;-74
2021/07/23 00:39:28;;;;;;;21.92;16.55;;;;;;;26.12;44.44;101888.00;5072771;28;20099;-75
2021/07/23 00:41:54;;;;;;;28.88;21.30;;;;;;;26.11;44.55;101892.00;5072676;28;20025;-74
2021/07/23 00:44:19;;;;;;;28.08;21.50;;;;;;;26.07;44.43;101897.59;5072669;28;20025;-75
2021/07/23 00:46:46;;;;;;;28.17;21.27;;;;;;;25.98;44.72;101900.72;5072137;28;20029;-75
2021/07/23 00:49:11;;;;;;;28.85;20.55;;;;;;;26.06;44.27;101883.94;5071307;28;20103;-79
2021/07/23 00:51:37;;;;;;;27.08;18.83;;;;;;;26.06;44.32;101892.34;5072545;28;20539;-77
2021/07/23 00:54:04;;;;;;;22.50;19.77;;;;;;;26.13;44.55;101893.19;5072613;28;20032;-75
2021/07/23 00:56:31;;;;;;;27.67;18.50;;;;;;;26.21;44.69;101891.22;5072377;28;20067;-75
2021/07/23 00:58:59;;;;;;;27.40;17.90;;;;;;;26.16;44.36;101900.84;5072462;28;20063;-75
2021/07/23 01:01:25;;;;;;;23.17;20.83;;;;;;;26.07;45.11;101891.16;5072475;28;20024;-78
2021/07/23 01:03:51;;;;;;;22.27;18.10;;;;;;;26.04;45.60;101883.56;5072614;28;20031;-74
2021/07/23 01:06:17;;;;;;;23.88;17.35;;;;;;;26.05;45.80;101883.16;5076665;28;20108;-75
2021/07/23 01:08:43;;;;;;;20.58;16.38;;;;;;;26.04;45.78;101886.34;5076939;28;20099;-75
2021/07/23 01:11:11;;;;;;;19.75;15.80;;;;;;;25.97;46.28;101881.50;5076543;28;20040;-74
2021/07/23 01:13:39;;;;;;;20.63;18.27;;;;;;;26.06;46.13;101879.16;5076540;28;20099;-75
2021/07/23 01:16:05;;;;;;;25.50;19.13;;;;;;;26.16;45.88;101888.81;5076358;28;20028;-75
2021/07/23 01:18:31;;;;;;;22.15;18.88;;;;;;;26.04;46.25;101875.16;5076344;28;20486;-75
2021/07/23 01:20:58;;;;;;;19.10;17.00;;;;;;;26.06;46.05;101875.56;5076187;28;20024;-75
2021/07/23 01:23:28;;;;;;;19.58;17.45;;;;;;;26.06;46.38;101876.34;5076301;28;20104;-74
2021/07/23 01:25:54;;;;;;;21.23;18.58;;;;;;;26.03;46.46;101870.75;5076556;28;20078;-75
2021/07/23 01:28:20;;;;;;;19.15;16.48;;;;;;;26.03;46.31;101867.94;5076153;28;20487;-75
2021/07/23 01:30:46;;;;;;;24.55;14.90;;;;;;;26.02;45.88;101863.53;5076196;28;20530;-75
2021/07/23 01:33:11;;;;;;;27.08;14.05;;;;;;;25.90;45.75;101865.47;5076033;28;20035;-75
2021/07/23 01:35:37;;;;;;;20.65;15.15;;;;;;;25.81;45.39;101867.03;5075800;28;20048;-80
2021/07/23 01:38:06;;;;;;;21.48;15.23;;;;;;;25.77;45.64;101867.00;5074600;28;20043;-80
2021/07/23 01:40:31;;;;;;;24.42;17.77;;;;;;;25.77;45.61;101860.56;5075536;28;20039;-75
2021/07/23 01:42:57;;;;;;;22.50;18.70;;;;;;;25.76;45.89;101873.78;5075846;28;20029;-75
2021/07/23 01:45:23;;;;;;;21.38;17.13;;;;;;;25.66;46.52;101874.50;5073995;28;20058;-75
2021/07/23 01:47:48;;;;;;;19.48;16.90;;;;;;;25.76;45.86;101854.19;5074430;28;20051;-75
2021/07/23 01:50:14;;;;;;;20.83;16.58;;;;;;;25.79;45.94;101850.63;5075691;28;20391;-75
2021/07/23 01:52:39;;;;;;;22.25;18.50;;;;;;;25.79;46.08;101847.81;5075702;28;20490;-75
2021/07/23 01:55:05;;;;;;;20.35;16.88;;;;;;;25.76;45.96;101847.78;5075667;28;20028;-75
2021/07/23 01:57:34;;;;;;;21.58;17.90;;;;;;;25.77;46.14;101846.59;5075478;28;20544;-75
2021/07/23 02:00:00;;;;;;;27.08;19.15;;;;;;;25.68;46.57;101858.91;5075458;28;20059;-75
2021/07/23 02:02:25;;;;;;;20.80;17.40;;;;;;;25.71;46.46;101848.94;5075481;28;20474;-75
2021/07/23 02:04:51;;;;;;;21.40;17.92;;;;;;;25.66;46.38;101855.69;5075417;28;20032;-75
2021/07/23 02:07:17;;;;;;;24.10;19.23;;;;;;;25.61;46.60;101853.25;5075430;28;20032;-75
2021/07/23 02:09:43;;;;;;;27.95;20.25;;;;;;;25.62;46.41;101854.09;5075436;28;20086;-75
2021/07/23 02:12:09;;;;;;;25.63;21.35;;;;;;;25.56;46.69;101845.25;5075355;28;20394;-75
2021/07/23 02:14:35;;;;;;;27.50;16.75;;;;;;;25.57;46.64;101849.63;5075234;28;20108;-75
2021/07/23 02:17:00;;;;;;;50.72;20.52;;;;;;;25.48;46.33;101843.59;5074009;28;20604;-74
2021/07/23 02:19:26;;;;;;;38.85;21.83;;;;;;;25.37;45.80;101835.09;5073914;28;20028;-74
2021/07/23 02:21:51;;;;;;;45.22;24.38;;;;;;;25.34;45.76;101840.69;5073848;28;20490;-76
2021/07/23 02:24:17;;;;;;;41.53;21.90;;;;;;;25.34;45.56;101835.88;5075090;28;20463;-75
2021/07/23 02:26:43;;;;;;;34.72;22.58;;;;;;;25.43;45.28;101841.16;5074999;28;20056;-75
2021/07/23 02:29:09;;;;;;;45.25;30.52;;;;;;;25.42;44.64;101833.94;5074981;28;20524;-74
2021/07/23 02:31:34;;;;;;;44.85;27.75;;;;;;;25.36;44.83;101830.69;5073670;28;20025;-75
2021/07/23 02:34:00;;;;;;;33.30;22.73;;;;;;;25.40;44.77;101828.75;5074917;28;20028;-74
2021/07/23 02:36:25;;;;;;;58.30;24.05;;;;;;;25.41;45.20;101830.34;5074298;28;20114;-75
2021/07/23 02:38:51;;;;;;;31.23;22.05;;;;;;;25.45;45.43;101828.34;5074841;28;20040;-75
2021/07/23 02:41:16;;;;;;;28.23;22.20;;;;;;;25.44;45.85;101826.75;5074819;28;20032;-74
2021/07/23 02:43:45;;;;;;;20.80;18.42;;;;;;;25.38;45.86;101817.13;5073407;28;20032;-75
2021/07/23 02:46:10;;;;;;;21.52;18.00;;;;;;;25.28;46.17;101817.84;5074672;28;20025;-75
2021/07/23 02:48:36;;;;;;;22.63;17.35;;;;;;;25.18;46.27;101818.59;5074663;28;20035;-74
2021/07/23 02:51:01;;;;;;;20.90;17.38;;;;;;;25.11;46.68;101815.72;5074358;28;20032;-75
2021/07/23 02:53:27;;;;;;;23.38;19.05;;;;;;;25.13;46.76;101808.53;5074558;28;20418;-75
2021/07/23 02:55:53;;;;;;;22.42;18.42;;;;;;;25.20;46.70;101809.81;5074548;28;20475;-74
2021/07/23 02:58:18;;;;;;;22.42;18.33;;;;;;;25.25;46.68;101809.44;5074320;28;20087;-74
2021/07/23 03:00:44;;;;;;;76.55;23.15;;;;;;;25.22;46.43;101805.41;5073118;28;20024;-74
2021/07/23 03:03:10;;;;;;;18.88;16.17;;;;;;;25.18;46.46;101799.00;5073108;28;20024;-75
2021/07/23 03:05:35;;;;;;;19.63;14.25;;;;;;;25.23;46.19;101795.81;5074252;28;20028;-77
2021/07/23 03:08:01;;;;;;;19.77;15.75;;;;;;;25.18;46.25;101799.81;5072714;28;20082;-76
2021/07/23 03:10:26;;;;;;;21.65;17.27;;;;;;;25.23;46.15;101793.03;5072919;28;20037;-74
2021/07/23 03:12:52;;;;;;;19.55;15.95;;;;;;;25.32;45.94;101792.72;5074137;28;20029;-77
2021/07/23 03:15:18;;;;;;;20.15;15.35;;;;;;;25.26;46.22;101778.28;5073921;28;20032;-75
2021/07/23 03:17:43;;;;;;;21.42;16.25;;;;;;;25.19;46.21;101789.41;5073936;28;20039;-76
2021/07/23 03:20:09;;;;;;;19.60;17.15;;;;;;;25.22;46.06;101780.25;5072682;28;20028;-74
2021/07/23 03:22:35;;;;;;;22.50;18.05;;;;;;;25.27;45.83;101784.69;5074004;28;20036;-74
2021/07/23 03:25:03;;;;;;;22.15;17.77;;;;;;;25.25;45.99;101776.69;5073924;28;20035;-75
2021/07/23 03:27:29;;;;;;;24.40;17.17;;;;;;;25.26;45.79;101769.91;5073651;28;20605;-75
2021/07/23 03:29:55;;;;;;;37.25;18.92;;;;;;;25.32;45.82;101773.13;5073820;28;20108;-74
2021/07/23 03:32:20;;;;;;;19.75;16.00;;;;;;;25.37;45.54;101758.75;5073748;28;20103;-75
2021/07/23 03:34:46;;;;;;;31.13;15.10;;;;;;;25.43;45.25;101760.81;5073715;28;20037;-74
2021/07/23 03:37:11;;;;;;;30.23;15.85;;;;;;;25.60;44.63;101759.31;5073426;28;20053;-75
2021/07/23 03:39:37;;;;;;;74.35;20.83;;;;;;;25.62;44.33;101761.72;5072326;28;20028;-81
2021/07/23 03:42:03;;;;;;;25.83;15.60;;;;;;;25.58;44.33;101758.09;5073651;28;20039;-76
2021/07/23 03:44:28;;;;;;;20.05;14.15;;;;;;;25.51;44.76;101752.47;5073498;28;20426;-76
2021/07/23 03:46:54;;;;;;;56.85;19.90;;;;;;;25.45;44.53;101758.41;5073473;28;20394;-81
2021/07/23 03:49:20;;;;;;;67.15;20.45;;;;;;;25.42;44.11;101756.41;5073519;28;20028;-74
2021/07/23 03:51:45;;;;;;;52.22;18.27;;;;;;;25.39;43.73;101751.59;5073456;28;20501;-75
2021/07/23 03:54:11;;;;;;;34.97;16.33;;;;;;;25.29;44.16;101746.72;5073413;28;20112;-75
2021/07/23 03:56:37;;;;;;;49.00;15.73;;;;;;;25.35;43.88;101744.38;5073283;28;20028;-80
2021/07/23 03:59:04;;;;;;;19.73;14.07;;;;;;;25.36;44.49;101743.19;5073252;28;20024;-75
2021/07/23 04:01:29;;;;;;;19.88;14.63;;;;;;;25.46;44.11;101737.63;5073277;28;20028;-76
2021/07/23 04:03:55;;;;;;;18.95;14.85;;;;;;;25.45;44.59;101738.81;5073219;28;20035;-75
2021/07/23 04:06:20;;;;;;;19.92;13.45;;;;;;;25.52;44.59;101731.69;5072927;28;20032;-75
2021/07/23 04:08:46;;;;;;;19.98;13.27;;;;;;;25.56;44.57;101735.31;5071830;28;20036;-75
2021/07/23 04:11:16;;;;;;;18.38;15.48;;;;;;;25.56;44.60;101738.09;5072878;28;20036;-75
2021/07/23 04:13:45;;;;;;;18.02;14.48;;;;;;;25.56;44.64;101732.50;5073306;28;20039;-74
2021/07/23 04:16:11;;;;;;;20.17;14.93;;;;;;;25.57;44.59;101728.50;5072903;28;20074;-74
2021/07/23 04:18:36;;;;;;;21.58;14.02;;;;;;;25.61;44.66;101729.31;5072998;28;20464;-75
2021/07/23 04:21:04;;;;;;;51.80;18.05;;;;;;;25.59;44.58;101737.31;5072872;28;20028;-75
2021/07/23 04:23:30;;;;;;;45.50;17.58;;;;;;;25.44;44.64;101731.63;5072841;28;20028;-74
2021/07/23 04:25:56;;;;;;;21.33;12.18;;;;;;;25.44;44.85;101722.44;5071512;28;20123;-75
2021/07/23 04:28:21;;;;;;;18.10;12.30;;;;;;;25.38;44.50;101724.00;5071489;28;20115;-75
2021/07/23 04:30:47;;;;;;;19.88;12.63;;;;;;;25.21;45.21;101725.50;5072778;28;20112;-75
2021/07/23 04:33:13;;;;;;;54.55;16.90;;;;;;;25.20;45.38;101715.50;5072752;28;20052;-79
2021/07/23 04:35:38;;;;;;;40.90;16.05;;;;;;;25.11;45.19;101721.44;5072501;28;20049;-75
2021/07/23 04:38:04;;;;;;;22.33;12.88;;;;;;;25.36;45.16;101727.19;5072531;28;20035;-76
2021/07/23 04:40:29;;;;;;;18.30;12.65;;;;;;;25.47;44.98;101718.88;5072123;28;20107;-75
2021/07/23 04:42:55;;;;;;;17.35;12.30;;;;;;;25.30;45.22;101713.97;5071394;28;20107;-75
2021/07/23 04:45:21;;;;;;;18.65;12.68;;;;;;;25.43;44.76;101716.03;5072554;28;20487;-75
2021/07/23 04:47:46;;;;;;;23.45;14.30;;;;;;;25.20;45.73;101721.09;5072769;28;20024;-74
2021/07/23 04:50:12;;;;;;;22.40;13.95;;;;;;;25.18;45.80;101717.91;5072624;28;20385;-75
2021/07/23 04:52:38;;;;;;;37.28;13.70;;;;;;;25.11;45.91;101712.25;5072521;28;20020;-75
2021/07/23 04:55:09;;;;;;;21.23;12.75;;;;;;;25.16;46.13;101720.25;5072608;28;20016;-74
2021/07/23 04:57:42;;;;;;;20.33;12.95;;;;;;;25.19;46.32;101713.91;5072387;28;20036;-74
2021/07/23 05:00:09;;;;;;;23.98;13.80;;;;;;;25.15;46.44;101724.25;5072492;28;20031;-75
2021/07/23 05:02:36;;;;;;;16.80;12.27;;;;;;;25.20;46.20;101721.09;5072450;28;20616;-75
2021/07/23 05:05:01;;;;;;;16.88;12.75;;;;;;;25.20;46.13;101725.91;5072432;28;20032;-76
2021/07/23 05:07:27;;;;;;;21.85;14.07;;;;;;;25.25;46.44;101719.94;5072398;28;20028;-75
2021/07/23 05:09:52;;;;;;;20.42;13.00;;;;;;;25.31;46.13;101716.38;5072394;28;20029;-75
2021/07/23 05:12:18;;;;;;;17.73;12.82;;;;;;;25.32;45.95;101720.78;5072393;28;20029;-78
2021/07/23 05:14:44;;;;;;;19.75;13.60;;;;;;;25.41;45.97;101728.84;5072316;28;20024;-79
2021/07/23 05:17:10;;;;;;;20.63;13.95;;;;;;;25.34;46.20;101714.81;5072144;28;20024;-75
2021/07/23 05:19:37;;;;;;;21.13;15.00;;;;;;;25.33;46.46;101719.59;5072240;28;20036;-75
2021/07/23 05:22:04;;;;;;;23.00;14.80;;;;;;;25.57;45.85;101717.31;5071992;28;20029;-74
2021/07/23 05:24:31;;;;;;;22.65;13.77;;;;;;;25.72;45.50;101719.03;5072256;28;20035;-75
2021/07/23 05:26:58;;;;;;;21.45;13.07;;;;;;;25.69;45.74;101719.75;5072225;28;20020;-75
2021/07/23 05:29:24;;;;;;;16.85;12.43;;;;;;;25.71;45.62;101714.59;5070913;28;20028;-74
2021/07/23 05:31:49;;;;;;;22.60;13.10;;;;;;;25.78;45.77;101723.06;5070295;28;20074;-75
2021/07/23 05:34:15;;;;;;;13.32;11.43;;;;;;;25.88;45.48;101721.47;5068720;28;20024;-74
2021/07/23 05:36:40;;;;;;;24.40;15.32;;;;;;;25.81;45.62;101718.66;5070026;28;20472;-75
2021/07/23 05:39:07;;;;;;;16.60;11.50;;;;;;;25.84;45.62;101721.44;5068964;28;20470;-75
2021/07/23 05:41:33;;;;;;;32.65;18.85;;;;;;;25.86;45.98;101718.28;5070217;28;20078;-74
2021/07/23 05:43:58;;;;;;;40.42;27.60;;;;;;;26.05;46.53;101719.94;5070786;28;20037;-75
2021/07/23 05:46:24;;;;;;;41.00;25.52;;;;;;;26.26;47.01;101728.38;5072018;28;20059;-74
2021/07/23 05:48:49;;;;;;;38.85;32.17;;;;;;;26.53;47.88;101718.47;5070628;28;20029;-74
2021/07/23 05:51:15;;;;;;;44.75;30.05;;;;;;;26.58;49.47;101727.66;5074425;28;20055;-74
2021/07/23 05:53:40;;;;;;;45.10;31.38;;;;;;;26.86;50.14;101724.88;5075605;28;20032;-74
2021/07/23 05:56:06;;;;;;;42.35;32.38;;;;;;;27.18;50.38;101716.44;5075450;28;20078;-74
2021/07/23 05:58:33;;;;;;;45.90;33.80;;;;;;;27.40;50.59;101720.00;5075535;28;20074;-74
2021/07/23 06:00:58;;;;;;;42.67;33.10;;;;;;;27.46;51.33;101721.19;5075589;28;20655;-75
2021/07/23 06:03:24;;;;;;;47.20;35.53;;;;;;;27.50;52.29;101723.97;5075448;28;20055;-75
2021/07/23 06:05:50;;;;;;;44.05;32.05;;;;;;;27.66;52.04;101715.91;5075523;28;20028;-75
2021/07/23 06:08:16;;;;;;;49.38;33.35;;;;;;;27.74;52.71;101716.72;5075407;28;20032;-80
2021/07/23 06:10:41;;;;;;;44.53;34.35;;;;;;;27.84;53.02;101718.66;5074192;28;20498;-80
2021/07/23 06:13:07;;;;;;;52.25;35.10;;;;;;;27.94;52.96;101717.81;5075184;28;20032;-78
2021/07/23 06:15:34;;;;;;;44.53;34.42;;;;;;;27.90;53.61;101714.22;5075554;28;20360;-80
2021/07/23 06:18:00;;;;;;;59.85;35.00;;;;;;;27.93;53.99;101717.00;5075165;28;20083;-77
2021/07/23 06:20:26;;;;;;;59.53;38.50;;;;;;;27.93;54.44;101719.03;5075090;28;20494;-79
2021/07/23 06:22:58;;;;;;;57.60;39.03;;;;;;;28.08;54.18;101723.34;5072916;28;20056;-80
2021/07/23 06:25:24;;;;;;;64.28;38.22;;;;;;;28.19;54.09;101721.28;5073766;28;20029;-81
2021/07/23 06:27:50;;;;;;;56.97;39.20;;;;;;;28.34;53.58;101718.41;5075138;28;20044;-80
2021/07/23 06:30:17;;;;;;;53.50;34.85;;;;;;;28.43;53.33;101721.56;5075123;28;20067;-80
2021/07/23 06:32:42;;;;;;;52.17;35.90;;;;;;;28.54;53.29;101727.91;5075159;28;20474;-79
2021/07/23 06:35:09;;;;;;;58.53;34.42;;;;;;;28.48;53.68;101721.91;5072956;28;20115;-80
2021/07/23 06:37:35;;;;;;;52.83;35.30;;;;;;;28.55;53.41;101723.06;5074531;28;20140;-79
2021/07/23 06:40:00;;;;;;;51.42;33.28;;;;;;;28.48;53.67;101723.91;5074919;28;20072;-75
2021/07/23 06:42:26;;;;;;;47.83;32.38;;;;;;;28.51;53.47;101719.50;5074524;28;20086;-76
2021/07/23 06:44:52;;;;;;;54.40;32.92;;;;;;;28.59;53.31;101727.47;5074745;28;20029;-76
2021/07/23 06:47:18;;;;;;;46.00;31.38;;;;;;;28.78;52.96;101716.84;5074578;28;20029;-76
2021/07/23 06:49:44;;;;;;;49.20;32.50;;;;;;;28.91;52.14;101721.59;5073660;28;20017;-79
2021/07/23 06:52:09;;;;;;;43.10;31.48;;;;;;;29.04;51.84;101719.06;5073781;28;20028;-77
2021/07/23 06:54:35;;;;;;;50.03;31.45;;;;;;;29.07;51.68;101714.63;5074559;28;20056;-76
2021/07/23 06:57:04;;;;;;;47.50;32.53;;;;;;;28.85;52.57;101711.19;5074411;28;20409;-76
2021/07/23 06:59:34;;;;;;;50.90;31.20;;;;;;;29.02;51.75;101710.25;5074579;28;20059;-76
2021/07/23 07:02:03;;;;;;;43.40;30.23;;;;;;;29.04;51.89;101705.00;5074042;28;20032;-81
2021/07/23 07:04:29;;;;;;;43.60;31.60;;;;;;;28.98;51.97;101709.47;5071510;28;20020;-81
2021/07/23 07:06:56;;;;;;;46.25;30.20;;;;;;;28.98;52.19;101715.09;5074433;28;20036;-79
2021/07/23 07:09:23;;;;;;;39.08;29.45;;;;;;;29.05;52.00;101708.63;5073279;28;20112;-87
2021/07/23 07:11:48;;;;;;;39.08;29.15;;;;;;;29.21;51.79;101706.81;5075447;28;20032;-86
2021/07/23 07:14:14;;;;;;;50.08;30.33;;;;;;;29.45;50.67;101704.16;5074870;28;20017;-83
2021/07/23 07:16:39;;;;;;;40.83;29.02;;;;;;;29.07;51.98;101701.34;5075154;28;20070;-75
2021/07/23 07:19:05;;;;;;;40.13;29.45;;;;;;;29.08;52.00;101700.13;5072978;28;20039;-87
2021/07/23 07:21:30;;;;;;;43.97;29.05;;;;;;;29.24;51.33;101694.72;5074330;28;20025;-75
2021/07/23 07:23:56;;;;;;;43.97;28.80;;;;;;;29.32;50.77;101700.28;5074688;28;20484;-87
2021/07/23 07:26:22;;;;;;;42.33;29.98;;;;;;;29.28;50.93;101705.97;5074595;28;20103;-89
2021/07/23 07:28:48;;;;;;;38.40;26.80;;;;;;;29.35;50.71;101705.09;5074642;28;20024;-85
2021/07/23 07:31:16;;;;;;;34.53;26.85;;;;;;;29.29;51.03;101701.91;5074478;28;20103;-85
2021/07/23 07:33:41;;;;;;;39.65;25.88;;;;;;;29.52;50.29;101698.47;5075925;28;20025;-88
2021/07/23 07:36:07;;;;;;;40.95;27.10;;;;;;;29.62;49.62;101703.16;5074748;28;20041;-86
2021/07/23 07:38:32;;;;;;;35.38;25.42;;;;;;;29.61;49.46;101693.13;5074343;28;20029;-88
2021/07/23 07:40:58;;;;;;;40.10;28.13;;;;;;;29.55;50.08;101703.28;5074688;28;20036;-77
2021/07/23 07:43:23;;;;;;;35.72;25.90;;;;;;;29.65;49.52;101705.16;5074605;28;20073;-86
2021/07/23 07:45:53;;;;;;;53.47;26.92;;;;;;;29.45;50.21;101709.78;5072611;28;20036;-76
2021/07/23 07:48:18;;;;;;;33.47;25.95;;;;;;;29.28;50.62;101709.56;5074308;28;20029;-76
2021/07/23 07:50:44;;;;;;;33.00;25.98;;;;;;;29.45;49.84;101704.94;5073833;28;20036;-84
2021/07/23 07:53:12;;;;;;;29.85;24.17;;;;;;;29.73;48.88;101703.03;5072651;28;20087;-79
2021/07/23 07:55:38;;;;;;;39.33;26.23;;;;;;;29.79;48.78;101701.34;5073449;28;20029;-84
2021/07/23 07:58:03;;;;;;;33.55;24.20;;;;;;;29.98;48.41;101700.69;5072040;28;20032;-74
2021/07/23 08:00:29;;;;;;;38.33;24.45;;;;;;;29.95;48.27;101703.56;5071829;28;20020;-82
2021/07/23 08:02:54;;;;;;;32.67;25.60;;;;;;;30.02;48.33;101706.28;5074185;28;20032;-83
2021/07/23 08:05:20;;;;;;;32.42;24.88;;;;;;;29.88;48.36;101698.03;5074099;28;20491;-81
2021/07/23 08:07:46;;;;;;;35.63;26.20;;;;;;;30.01;48.08;101702.66;5074199;28;20024;-88
2021/07/23 08:10:14;;;;;;;33.33;23.23;;;;;;;29.97;47.92;101693.44;5074872;28;20032;-78
2021/07/23 08:12:40;;;;;;;38.30;26.95;;;;;;;30.16;47.49;101694.81;5072081;28;20114;-75
2021/07/23 08:15:06;;;;;;;32.08;24.95;;;;;;;30.33;47.01;101699.38;5072989;28;20513;-79
2021/07/23 08:17:32;;;;;;;31.10;23.83;;;;;;;30.37;46.74;101696.50;5071923;28;20041;-75
2021/07/23 08:20:00;;;;;;;32.28;24.65;;;;;;;30.53;46.43;101693.03;5073385;28;20035;-88
2021/07/23 08:22:28;;;;;;;30.20;23.73;;;;;;;30.58;46.24;101693.34;5073447;28;20055;-76
2021/07/23 08:24:54;;;;;;;40.22;26.67;;;;;;;30.66;46.34;101686.38;5072414;28;20123;-78
2021/07/23 08:27:21;;;;;;;33.75;23.85;;;;;;;30.72;46.25;101688.72;5073385;28;20028;-91
2021/07/23 08:29:47;;;;;;;30.02;22.02;;;;;;;30.64;45.82;101685.19;5073602;28;20107;-88
2021/07/23 08:32:14;;;;;;;31.05;23.08;;;;;;;30.63;46.47;101689.25;5074052;28;20016;-91
2021/07/23 08:34:40;;;;;;;33.58;24.63;;;;;;;30.72;45.93;101686.69;5073970;28;20051;-84
2021/07/23 08:37:06;;;;;;;29.90;22.85;;;;;;;30.76;46.13;101687.44;5073513;28;20387;-76
2021/07/23 08:39:33;;;;;;;30.33;22.33;;;;;;;30.62;46.20;101673.56;5072510;28;20025;-76
2021/07/23 08:41:59;;;;;;;32.03;22.48;;;;;;;30.70;45.53;101679.91;5073647;28;20059;-89
2021/07/23 08:44:27;;;;;;;30.52;21.15;;;;;;;30.69;45.80;101690.38;5073197;28;20099;-92
2021/07/23 08:46:53;;;;;;;29.85;23.10;;;;;;;30.72;44.92;101686.69;5073094;28;20056;-83
2021/07/23 08:49:19;;;;;;;38.97;23.00;;;;;;;30.75;45.17;101694.28;5072791;28;20063;-76
2021/07/23 08:51:52;;;;;;;30.08;22.20;;;;;;;30.75;45.21;101691.47;5072968;28;20020;-75
2021/07/23 08:54:19;;;;;;;29.58;21.92;;;;;;;30.59;45.32;101692.09;5071661;28;20086;-88
2021/07/23 08:56:48;;;;;;;34.80;22.90;;;;;;;30.78;45.07;101687.00;5072929;28;20090;-90
2021/07/23 08:59:14;;;;;;;45.85;23.92;;;;;;;30.84;45.11;101680.44;5071644;28;20020;-75
2021/07/23 09:01:59;;;;;;;27.98;22.50;;;;;;;30.55;45.10;101676.50;5071857;28;20070;-90
2021/07/23 09:04:36;;;;;;;30.50;21.60;;;;;;;30.71;44.93;101687.13;5071380;28;20021;-93
2021/07/23 09:07:14;;;;;;;27.65;21.30;;;;;;;30.69;44.61;101679.09;5073338;28;20036;-93
2021/07/23 09:09:40;;;;;;;27.27;21.58;;;;;;;30.81;44.41;101667.19;5072952;28;20036;-76
2021/07/23 09:12:06;;;;;;;27.60;20.17;;;;;;;30.97;44.81;101663.66;5072770;28;20020;-93
2021/07/23 09:14:32;;;;;;;34.08;19.70;;;;;;;31.07;44.30;101657.03;5071794;28;20479;-91
2021/07/23 09:16:58;;;;;;;26.15;18.52;;;;;;;31.25;43.96;101668.00;5071690;28;20040;-82
2021/07/23 09:19:24;;;;;;;26.92;20.35;;;;;;;31.46;43.37;101670.38;5072394;28;20035;-90
2021/07/23 09:21:58;;;;;;;27.63;19.25;;;;;;;31.30;43.19;101664.69;5072862;28;20024;-76
2021/07/23 09:24:24;;;;;;;26.13;20.02;;;;;;;31.55;43.17;101660.53;5071781;28;20021;-89
2021/07/23 09:26:51;;;;;;;43.85;19.08;;;;;;;31.85;42.70;101676.44;5075472;28;20056;-79
2021/07/23 09:29:17;;;;;;;28.85;18.95;;;;;;;31.84;42.02;101670.00;5075228;28;20472;-90
2021/07/23 09:32:06;;;;;;;28.10;17.85;;;;;;;31.81;41.99;101659.56;5077031;28;20028;-75
2021/07/23 09:34:32;;;;;;;29.45;19.05;;;;;;;31.89;41.29;101657.38;5075978;28;20360;-89
2021/07/23 09:37:08;;;;;;;27.08;19.55;;;;;;;31.82;41.80;101663.22;5076713;28;20111;-88
2021/07/23 09:39:34;;;;;;;25.77;17.80;;;;;;;31.97;41.50;101656.00;5075079;28;20025;-75
2021/07/23 09:42:01;;;;;;;26.15;18.48;;;;;;;31.96;41.29;101646.69;5075092;28;20029;-75
2021/07/23 09:44:27;;;;;;;20.33;16.25;;;;;;;32.12;41.36;101653.59;5076474;28;20074;-75
2021/07/23 09:46:52;;;;;;;24.58;18.85;;;;;;;32.09;41.42;101649.63;5074953;28;20020;-91
2021/07/23 09:49:28;;;;;;;23.67;17.02;;;;;;;32.08;41.05;101647.25;5074996;28;20123;-76
2021/07/23 09:51:55;;;;;;;23.00;18.75;;;;;;;31.95;41.32;101645.09;5075426;28;20016;-90
2021/07/23 09:54:21;;;;;;;22.73;17.73;;;;;;;31.98;41.20;101644.25;5076294;28;20085;-91
2021/07/23 09:56:49;;;;;;;24.02;18.13;;;;;;;31.84;41.71;101638.94;5074658;28;20025;-91
2021/07/23 09:59:32;;;;;;;24.17;18.67;;;;;;;31.79;40.96;101639.44;5074845;28;20027;-77
2021/07/23 10:02:02;;;;;;;39.88;21.35;;;;;;;31.89;41.01;101631.94;5076142;28;20029;-85
2021/07/23 10:04:36;;;;;;;;;;;;;;;32.08;41.14;101635.94;5077073;28;20123;-76
2021/07/23 10:07:18;;;;;;;22.38;17.75;;;;;;;32.24;40.68;101638.78;5075701;28;19913;-76
2021/07/23 10:09:43;;;;;;;25.90;17.90;;;;;;;32.29;40.67;101629.78;5075702;28;20054;-76
2021/07/23 10:12:12;;;;;;;23.35;17.52;;;;;;;32.29;40.41;101635.44;5075429;28;20029;-77
2021/07/23 10:14:40;;;;;;;23.90;17.88;;;;;;;32.38;40.40;101632.81;5075744;28;20048;-77
2021/07/23 10:17:08;;;;;;;28.92;17.48;;;;;;;32.56;39.73;101643.66;5075504;28;20031;-76
2021/07/23 10:19:36;;;;;;;26.80;18.60;;;;;;;32.41;39.62;101640.38;5075565;28;20375;-76
2021/07/23 10:22:03;;;;;;;22.83;18.40;;;;;;;32.43;39.51;101639.97;5075310;28;20052;-77
2021/07/23 10:24:35;;;;;;;26.15;17.15;;;;;;;32.61;39.25;101640.28;5075585;28;20029;-76
2021/07/23 10:27:08;;;;;;;22.08;17.35;;;;;;;32.49;39.40;101633.31;5075348;28;20025;-75
2021/07/23 10:29:50;;;;;;;27.27;17.48;;;;;;;32.38;39.30;101638.47;5075611;28;20103;-77
2021/07/23 10:32:27;;;;;;;24.38;16.83;;;;;;;32.43;39.04;101639.97;5075115;28;20047;-78
2021/07/23 10:34:55;;;;;;;27.05;18.38;;;;;;;32.62;38.58;101632.59;5075068;28;20048;-77
2021/07/23 10:37:30;;;;;;;24.38;18.02;;;;;;;32.63;38.49;101628.53;5073753;28;20075;-79
2021/07/23 10:40:29;;;;;;;24.23;16.52;;;;;;;32.64;38.29;101635.75;5075063;28;20021;-77
2021/07/23 10:42:55;;;;;;;27.90;18.98;;;;;;;32.40;39.08;101626.69;5075074;28;20020;-77
2021/07/23 10:45:21;;;;;;;30.00;18.98;;;;;;;32.78;38.55;101635.38;5074858;28;20387;-76
2021/07/23 10:47:48;;;;;;;29.80;17.02;;;;;;;32.95;38.26;101619.19;5075055;28;20025;-76
2021/07/23 10:50:25;;;;;;;25.00;17.98;;;;;;;33.00;38.08;101627.94;5074778;28;20021;-76
2021/07/23 10:52:52;;;;;;;45.33;21.42;;;;;;;32.99;37.72;101620.69;5073747;28;20021;-77
2021/07/23 10:55:22;;;;;;;30.27;17.00;;;;;;;32.87;37.91;101629.91;5074879;28;20024;-77
2021/07/23 10:58:09;;;;;;;26.33;20.00;;;;;;;32.66;38.16;101625.63;5076129;28;20031;-77
2021/07/23 11:00:46;;;;;;;25.88;19.17;;;;;;;32.68;38.36;101623.13;5075164;28;20036;-76
2021/07/23 11:03:45;;;;;;;28.02;19.10;;;;;;;32.52;38.28;101617.50;5074585;28;20017;-77
2021/07/23 11:06:14;;;;;;;28.70;19.88;;;;;;;32.79;37.88;101617.97;5074840;28;20032;-76
2021/07/23 11:08:55;;;;;;;25.17;18.65;;;;;;;32.77;37.79;101617.63;5074643;28;20090;-76